sensor_id;sensor_type;location;lat;lon;timestamp;P1;durP1;ratioP1;P2;durP2;ratioP2
85154;SDS011;75523;53.218;6.564;2024-01-15T00:02:17;32.20;;;29.00;;
85154;SDS011;75523;53.218;6.564;2024-01-15T00:04:43;33.20;;;29.97;;
85154;SDS011;75523;53.218;6.564;2024-01-15T00:07:10;33.40;;;30.43;;
85154;SDS011;75523;53.218;6.564;2024-01-15T00:09:36;32.20;;;29.50;;
85154;SDS011;75523;53.218;6.564;2024-01-15T00:12:02;31.57;;;29.20;;
85154;SDS011;75523;53.218;6.564;2024-01-15T00:14:27;32.10;;;29.33;;
85154;SDS011;75523;53.218;6.564;2024-01-15T00:16:54;31.37;;;29.17;;
85154;SDS011;75523;53.218;6.564;2024-01-15T00:19:23;31.20;;;28.97;;
85154;SDS011;75523;53.218;6.564;2024-01-15T00:21:49;31.07;;;28.97;;
85154;SDS011;75523;53.218;6.564;2024-01-15T00:24:15;30.97;;;28.80;;
85154;SDS011;75523;53.218;6.564;2024-01-15T00:26:41;31.87;;;29.57;;
85154;SDS011;75523;53.218;6.564;2024-01-15T00:29:07;32.03;;;29.67;;
85154;SDS011;75523;53.218;6.564;2024-01-15T00:31:33;32.63;;;30.10;;
85154;SDS011;75523;53.218;6.564;2024-01-15T00:33:59;32.27;;;29.70;;
85154;SDS011;75523;53.218;6.564;2024-01-15T00:36:25;30.60;;;28.30;;
85154;SDS011;75523;53.218;6.564;2024-01-15T00:38:50;32.80;;;30.07;;
85154;SDS011;75523;53.218;6.564;2024-01-15T00:41:16;32.93;;;30.63;;
85154;SDS011;75523;53.218;6.564;2024-01-15T00:43:44;31.67;;;29.03;;
85154;SDS011;75523;53.218;6.564;2024-01-15T00:46:10;31.77;;;29.37;;
85154;SDS011;75523;53.218;6.564;2024-01-15T00:48:35;32.77;;;29.73;;
85154;SDS011;75523;53.218;6.564;2024-01-15T00:51:01;31.93;;;29.63;;
85154;SDS011;75523;53.218;6.564;2024-01-15T00:53:26;32.47;;;29.77;;
85154;SDS011;75523;53.218;6.564;2024-01-15T00:55:52;32.40;;;29.60;;
85154;SDS011;75523;53.218;6.564;2024-01-15T00:58:18;31.77;;;29.37;;
85154;SDS011;75523;53.218;6.564;2024-01-15T01:00:44;32.93;;;30.10;;
85154;SDS011;75523;53.218;6.564;2024-01-15T01:03:09;31.83;;;29.23;;
85154;SDS011;75523;53.218;6.564;2024-01-15T01:05:36;31.37;;;28.90;;
85154;SDS011;75523;53.218;6.564;2024-01-15T01:08:01;32.63;;;29.73;;
85154;SDS011;75523;53.218;6.564;2024-01-15T01:10:28;31.97;;;29.27;;
85154;SDS011;75523;53.218;6.564;2024-01-15T01:12:54;33.77;;;30.67;;
85154;SDS011;75523;53.218;6.564;2024-01-15T01:15:20;33.27;;;30.33;;
85154;SDS011;75523;53.218;6.564;2024-01-15T01:17:46;32.47;;;29.40;;
85154;SDS011;75523;53.218;6.564;2024-01-15T01:20:12;33.07;;;29.53;;
85154;SDS011;75523;53.218;6.564;2024-01-15T01:22:38;33.53;;;30.43;;
85154;SDS011;75523;53.218;6.564;2024-01-15T01:25:04;33.67;;;30.17;;
85154;SDS011;75523;53.218;6.564;2024-01-15T01:27:30;32.27;;;29.43;;
85154;SDS011;75523;53.218;6.564;2024-01-15T01:29:55;33.77;;;30.93;;
85154;SDS011;75523;53.218;6.564;2024-01-15T01:32:21;33.77;;;30.87;;
85154;SDS011;75523;53.218;6.564;2024-01-15T01:34:46;33.30;;;30.57;;
85154;SDS011;75523;53.218;6.564;2024-01-15T01:37:12;33.23;;;30.03;;
85154;SDS011;75523;53.218;6.564;2024-01-15T01:39:38;34.53;;;31.43;;
85154;SDS011;75523;53.218;6.564;2024-01-15T01:42:04;33.37;;;29.73;;
85154;SDS011;75523;53.218;6.564;2024-01-15T01:44:30;32.43;;;29.60;;
85154;SDS011;75523;53.218;6.564;2024-01-15T01:46:55;33.20;;;30.00;;
85154;SDS011;75523;53.218;6.564;2024-01-15T01:49:22;31.53;;;28.80;;
85154;SDS011;75523;53.218;6.564;2024-01-15T01:51:47;33.27;;;30.10;;
85154;SDS011;75523;53.218;6.564;2024-01-15T01:54:13;32.37;;;29.57;;
85154;SDS011;75523;53.218;6.564;2024-01-15T01:56:39;31.43;;;28.80;;
85154;SDS011;75523;53.218;6.564;2024-01-15T01:59:05;32.10;;;29.63;;
85154;SDS011;75523;53.218;6.564;2024-01-15T02:01:31;31.10;;;28.20;;
85154;SDS011;75523;53.218;6.564;2024-01-15T02:03:57;30.77;;;27.90;;
85154;SDS011;75523;53.218;6.564;2024-01-15T02:06:23;30.57;;;27.70;;
85154;SDS011;75523;53.218;6.564;2024-01-15T02:08:49;32.30;;;29.23;;
85154;SDS011;75523;53.218;6.564;2024-01-15T02:11:15;32.43;;;29.60;;
85154;SDS011;75523;53.218;6.564;2024-01-15T02:13:40;32.73;;;29.83;;
85154;SDS011;75523;53.218;6.564;2024-01-15T02:16:06;33.43;;;30.50;;
85154;SDS011;75523;53.218;6.564;2024-01-15T02:18:45;33.03;;;29.90;;
85154;SDS011;75523;53.218;6.564;2024-01-15T02:21:11;31.30;;;28.63;;
85154;SDS011;75523;53.218;6.564;2024-01-15T02:23:37;32.33;;;29.60;;
85154;SDS011;75523;53.218;6.564;2024-01-15T02:26:04;32.33;;;29.47;;
85154;SDS011;75523;53.218;6.564;2024-01-15T02:28:30;31.20;;;28.37;;
85154;SDS011;75523;53.218;6.564;2024-01-15T02:30:55;31.67;;;28.70;;
85154;SDS011;75523;53.218;6.564;2024-01-15T02:33:22;31.27;;;28.20;;
85154;SDS011;75523;53.218;6.564;2024-01-15T02:35:47;32.97;;;30.13;;
85154;SDS011;75523;53.218;6.564;2024-01-15T02:38:15;30.23;;;27.37;;
85154;SDS011;75523;53.218;6.564;2024-01-15T02:40:41;30.70;;;27.90;;
85154;SDS011;75523;53.218;6.564;2024-01-15T02:43:06;31.37;;;28.73;;
85154;SDS011;75523;53.218;6.564;2024-01-15T02:45:32;32.20;;;29.30;;
85154;SDS011;75523;53.218;6.564;2024-01-15T02:47:57;31.93;;;28.50;;
85154;SDS011;75523;53.218;6.564;2024-01-15T02:50:23;31.27;;;28.27;;
85154;SDS011;75523;53.218;6.564;2024-01-15T02:52:48;30.93;;;28.23;;
85154;SDS011;75523;53.218;6.564;2024-01-15T02:55:14;31.23;;;28.30;;
85154;SDS011;75523;53.218;6.564;2024-01-15T02:57:39;31.77;;;29.10;;
85154;SDS011;75523;53.218;6.564;2024-01-15T03:00:05;31.57;;;28.97;;
85154;SDS011;75523;53.218;6.564;2024-01-15T03:02:32;30.33;;;27.70;;
85154;SDS011;75523;53.218;6.564;2024-01-15T03:04:58;30.63;;;28.00;;
85154;SDS011;75523;53.218;6.564;2024-01-15T03:07:23;31.23;;;28.83;;
85154;SDS011;75523;53.218;6.564;2024-01-15T03:09:49;31.87;;;29.30;;
85154;SDS011;75523;53.218;6.564;2024-01-15T03:12:15;31.50;;;29.20;;
85154;SDS011;75523;53.218;6.564;2024-01-15T03:14:40;30.43;;;27.93;;
85154;SDS011;75523;53.218;6.564;2024-01-15T03:17:06;31.57;;;28.63;;
85154;SDS011;75523;53.218;6.564;2024-01-15T03:19:34;31.80;;;28.90;;
85154;SDS011;75523;53.218;6.564;2024-01-15T03:22:00;30.63;;;27.80;;
85154;SDS011;75523;53.218;6.564;2024-01-15T03:24:27;31.53;;;28.23;;
85154;SDS011;75523;53.218;6.564;2024-01-15T03:26:53;30.93;;;28.27;;
85154;SDS011;75523;53.218;6.564;2024-01-15T03:29:18;31.13;;;28.23;;
85154;SDS011;75523;53.218;6.564;2024-01-15T03:31:44;30.30;;;27.27;;
85154;SDS011;75523;53.218;6.564;2024-01-15T03:34:09;31.60;;;28.60;;
85154;SDS011;75523;53.218;6.564;2024-01-15T03:36:35;32.53;;;29.00;;
85154;SDS011;75523;53.218;6.564;2024-01-15T03:39:00;32.07;;;28.77;;
85154;SDS011;75523;53.218;6.564;2024-01-15T03:41:25;30.77;;;27.77;;
85154;SDS011;75523;53.218;6.564;2024-01-15T03:43:51;30.80;;;27.60;;
85154;SDS011;75523;53.218;6.564;2024-01-15T03:46:16;32.87;;;29.67;;
85154;SDS011;75523;53.218;6.564;2024-01-15T03:48:42;32.60;;;29.43;;
85154;SDS011;75523;53.218;6.564;2024-01-15T03:51:07;32.20;;;28.80;;
85154;SDS011;75523;53.218;6.564;2024-01-15T03:53:33;33.60;;;30.10;;
85154;SDS011;75523;53.218;6.564;2024-01-15T03:55:58;32.33;;;29.23;;
85154;SDS011;75523;53.218;6.564;2024-01-15T03:58:23;31.63;;;28.70;;
85154;SDS011;75523;53.218;6.564;2024-01-15T04:00:49;32.30;;;29.30;;
85154;SDS011;75523;53.218;6.564;2024-01-15T04:03:15;32.53;;;29.67;;
85154;SDS011;75523;53.218;6.564;2024-01-15T04:05:40;31.10;;;27.53;;
85154;SDS011;75523;53.218;6.564;2024-01-15T04:08:06;30.93;;;26.20;;
85154;SDS011;75523;53.218;6.564;2024-01-15T04:10:31;29.27;;;26.70;;
85154;SDS011;75523;53.218;6.564;2024-01-15T04:12:57;31.23;;;28.53;;
85154;SDS011;75523;53.218;6.564;2024-01-15T04:15:24;30.60;;;28.10;;
85154;SDS011;75523;53.218;6.564;2024-01-15T04:17:50;29.17;;;26.77;;
85154;SDS011;75523;53.218;6.564;2024-01-15T04:20:16;31.00;;;28.40;;
85154;SDS011;75523;53.218;6.564;2024-01-15T04:22:41;29.53;;;27.03;;
85154;SDS011;75523;53.218;6.564;2024-01-15T04:25:06;29.93;;;27.33;;
85154;SDS011;75523;53.218;6.564;2024-01-15T04:27:32;29.40;;;26.90;;
85154;SDS011;75523;53.218;6.564;2024-01-15T04:29:57;30.00;;;27.47;;
85154;SDS011;75523;53.218;6.564;2024-01-15T04:32:23;28.83;;;26.33;;
85154;SDS011;75523;53.218;6.564;2024-01-15T04:34:49;29.60;;;27.13;;
85154;SDS011;75523;53.218;6.564;2024-01-15T04:37:15;29.63;;;27.33;;
85154;SDS011;75523;53.218;6.564;2024-01-15T04:39:40;30.43;;;27.97;;
85154;SDS011;75523;53.218;6.564;2024-01-15T04:42:05;28.37;;;26.17;;
85154;SDS011;75523;53.218;6.564;2024-01-15T04:44:31;29.63;;;27.17;;
85154;SDS011;75523;53.218;6.564;2024-01-15T04:46:56;29.10;;;26.67;;
85154;SDS011;75523;53.218;6.564;2024-01-15T04:49:22;28.13;;;25.93;;
85154;SDS011;75523;53.218;6.564;2024-01-15T04:51:47;29.70;;;27.13;;
85154;SDS011;75523;53.218;6.564;2024-01-15T04:54:13;30.20;;;27.97;;
85154;SDS011;75523;53.218;6.564;2024-01-15T04:56:42;29.80;;;27.70;;
85154;SDS011;75523;53.218;6.564;2024-01-15T04:59:08;29.40;;;27.40;;
85154;SDS011;75523;53.218;6.564;2024-01-15T05:01:34;30.57;;;28.43;;
85154;SDS011;75523;53.218;6.564;2024-01-15T05:03:59;31.17;;;28.67;;
85154;SDS011;75523;53.218;6.564;2024-01-15T05:06:25;29.50;;;27.30;;
85154;SDS011;75523;53.218;6.564;2024-01-15T05:08:51;31.47;;;28.63;;
85154;SDS011;75523;53.218;6.564;2024-01-15T05:11:16;31.17;;;28.73;;
85154;SDS011;75523;53.218;6.564;2024-01-15T05:13:42;29.73;;;27.17;;
85154;SDS011;75523;53.218;6.564;2024-01-15T05:16:08;30.20;;;27.80;;
85154;SDS011;75523;53.218;6.564;2024-01-15T05:18:33;30.60;;;28.20;;
85154;SDS011;75523;53.218;6.564;2024-01-15T05:20:59;29.83;;;27.50;;
85154;SDS011;75523;53.218;6.564;2024-01-15T05:23:24;29.00;;;26.73;;
85154;SDS011;75523;53.218;6.564;2024-01-15T05:25:50;30.83;;;28.53;;
85154;SDS011;75523;53.218;6.564;2024-01-15T05:28:15;31.10;;;28.70;;
85154;SDS011;75523;53.218;6.564;2024-01-15T05:30:41;28.83;;;26.47;;
85154;SDS011;75523;53.218;6.564;2024-01-15T05:33:06;31.50;;;29.10;;
85154;SDS011;75523;53.218;6.564;2024-01-15T05:35:32;30.27;;;27.50;;
85154;SDS011;75523;53.218;6.564;2024-01-15T05:37:59;32.43;;;29.53;;
85154;SDS011;75523;53.218;6.564;2024-01-15T05:40:24;31.10;;;28.37;;
85154;SDS011;75523;53.218;6.564;2024-01-15T05:42:50;31.23;;;28.73;;
85154;SDS011;75523;53.218;6.564;2024-01-15T05:45:15;31.67;;;28.30;;
85154;SDS011;75523;53.218;6.564;2024-01-15T05:47:41;32.23;;;29.53;;
85154;SDS011;75523;53.218;6.564;2024-01-15T05:50:06;32.30;;;29.00;;
85154;SDS011;75523;53.218;6.564;2024-01-15T05:52:32;32.90;;;29.77;;
85154;SDS011;75523;53.218;6.564;2024-01-15T05:54:57;31.00;;;28.03;;
85154;SDS011;75523;53.218;6.564;2024-01-15T05:57:23;32.30;;;29.37;;
85154;SDS011;75523;53.218;6.564;2024-01-15T05:59:49;34.00;;;31.00;;
85154;SDS011;75523;53.218;6.564;2024-01-15T06:02:14;33.77;;;30.43;;
85154;SDS011;75523;53.218;6.564;2024-01-15T06:04:40;33.93;;;30.70;;
85154;SDS011;75523;53.218;6.564;2024-01-15T06:07:05;34.00;;;30.53;;
85154;SDS011;75523;53.218;6.564;2024-01-15T06:09:31;32.33;;;29.43;;
85154;SDS011;75523;53.218;6.564;2024-01-15T06:11:56;31.77;;;28.83;;
85154;SDS011;75523;53.218;6.564;2024-01-15T06:14:22;32.47;;;29.57;;
85154;SDS011;75523;53.218;6.564;2024-01-15T06:16:47;33.23;;;29.90;;
85154;SDS011;75523;53.218;6.564;2024-01-15T06:19:13;31.90;;;28.80;;
85154;SDS011;75523;53.218;6.564;2024-01-15T06:21:38;32.33;;;29.23;;
85154;SDS011;75523;53.218;6.564;2024-01-15T06:24:04;31.70;;;28.70;;
85154;SDS011;75523;53.218;6.564;2024-01-15T06:26:29;32.70;;;29.13;;
85154;SDS011;75523;53.218;6.564;2024-01-15T06:28:55;33.00;;;29.70;;
85154;SDS011;75523;53.218;6.564;2024-01-15T06:31:20;33.70;;;30.30;;
85154;SDS011;75523;53.218;6.564;2024-01-15T06:33:46;31.30;;;28.27;;
85154;SDS011;75523;53.218;6.564;2024-01-15T06:36:13;35.00;;;30.17;;
85154;SDS011;75523;53.218;6.564;2024-01-15T06:38:39;33.50;;;30.00;;
85154;SDS011;75523;53.218;6.564;2024-01-15T06:41:04;31.63;;;28.47;;
85154;SDS011;75523;53.218;6.564;2024-01-15T06:43:30;32.10;;;29.30;;
85154;SDS011;75523;53.218;6.564;2024-01-15T06:45:55;30.67;;;27.53;;
85154;SDS011;75523;53.218;6.564;2024-01-15T06:48:21;32.00;;;29.17;;
85154;SDS011;75523;53.218;6.564;2024-01-15T06:50:46;33.33;;;30.13;;
85154;SDS011;75523;53.218;6.564;2024-01-15T06:53:12;33.07;;;29.87;;
85154;SDS011;75523;53.218;6.564;2024-01-15T06:55:38;33.93;;;30.70;;
85154;SDS011;75523;53.218;6.564;2024-01-15T06:58:04;33.63;;;30.10;;
85154;SDS011;75523;53.218;6.564;2024-01-15T07:00:29;32.13;;;29.27;;
85154;SDS011;75523;53.218;6.564;2024-01-15T07:02:55;33.53;;;30.30;;
85154;SDS011;75523;53.218;6.564;2024-01-15T07:05:21;32.57;;;29.40;;
85154;SDS011;75523;53.218;6.564;2024-01-15T07:07:46;33.23;;;30.57;;
85154;SDS011;75523;53.218;6.564;2024-01-15T07:10:12;31.83;;;29.10;;
85154;SDS011;75523;53.218;6.564;2024-01-15T07:12:38;32.07;;;29.30;;
85154;SDS011;75523;53.218;6.564;2024-01-15T07:15:04;31.27;;;28.63;;
85154;SDS011;75523;53.218;6.564;2024-01-15T07:17:32;31.50;;;29.07;;
85154;SDS011;75523;53.218;6.564;2024-01-15T07:19:57;30.70;;;28.47;;
85154;SDS011;75523;53.218;6.564;2024-01-15T07:22:23;32.43;;;29.83;;
85154;SDS011;75523;53.218;6.564;2024-01-15T07:24:48;29.27;;;26.83;;
85154;SDS011;75523;53.218;6.564;2024-01-15T07:27:13;31.07;;;28.43;;
85154;SDS011;75523;53.218;6.564;2024-01-15T07:29:39;31.17;;;28.63;;
85154;SDS011;75523;53.218;6.564;2024-01-15T07:32:05;31.87;;;29.27;;
85154;SDS011;75523;53.218;6.564;2024-01-15T07:34:30;32.00;;;29.40;;
85154;SDS011;75523;53.218;6.564;2024-01-15T07:36:57;32.87;;;29.73;;
85154;SDS011;75523;53.218;6.564;2024-01-15T07:39:22;31.47;;;28.80;;
85154;SDS011;75523;53.218;6.564;2024-01-15T07:41:50;32.00;;;29.20;;
85154;SDS011;75523;53.218;6.564;2024-01-15T07:44:15;32.17;;;29.40;;
85154;SDS011;75523;53.218;6.564;2024-01-15T07:46:44;31.60;;;29.10;;
85154;SDS011;75523;53.218;6.564;2024-01-15T07:49:10;30.20;;;27.83;;
85154;SDS011;75523;53.218;6.564;2024-01-15T07:51:36;31.30;;;28.53;;
85154;SDS011;75523;53.218;6.564;2024-01-15T07:54:01;31.83;;;29.17;;
85154;SDS011;75523;53.218;6.564;2024-01-15T07:56:27;31.90;;;29.20;;
85154;SDS011;75523;53.218;6.564;2024-01-15T07:58:53;30.70;;;28.30;;
85154;SDS011;75523;53.218;6.564;2024-01-15T08:01:18;33.03;;;30.43;;
85154;SDS011;75523;53.218;6.564;2024-01-15T08:03:44;31.80;;;29.20;;
85154;SDS011;75523;53.218;6.564;2024-01-15T08:06:09;33.77;;;30.37;;
85154;SDS011;75523;53.218;6.564;2024-01-15T08:08:35;32.37;;;29.40;;
85154;SDS011;75523;53.218;6.564;2024-01-15T08:11:02;32.77;;;29.83;;
85154;SDS011;75523;53.218;6.564;2024-01-15T08:13:28;33.77;;;30.90;;
85154;SDS011;75523;53.218;6.564;2024-01-15T08:15:53;32.53;;;29.67;;
85154;SDS011;75523;53.218;6.564;2024-01-15T08:18:19;33.10;;;30.20;;
85154;SDS011;75523;53.218;6.564;2024-01-15T08:20:46;32.30;;;29.70;;
85154;SDS011;75523;53.218;6.564;2024-01-15T08:23:12;33.00;;;30.47;;
85154;SDS011;75523;53.218;6.564;2024-01-15T08:25:37;32.73;;;29.87;;
85154;SDS011;75523;53.218;6.564;2024-01-15T08:28:03;34.17;;;31.03;;
85154;SDS011;75523;53.218;6.564;2024-01-15T08:30:28;33.13;;;30.37;;
85154;SDS011;75523;53.218;6.564;2024-01-15T08:32:54;33.50;;;30.60;;
85154;SDS011;75523;53.218;6.564;2024-01-15T08:35:20;33.20;;;30.43;;
85154;SDS011;75523;53.218;6.564;2024-01-15T08:37:50;33.10;;;30.40;;
85154;SDS011;75523;53.218;6.564;2024-01-15T08:40:18;33.73;;;30.90;;
85154;SDS011;75523;53.218;6.564;2024-01-15T08:42:43;32.53;;;29.80;;
85154;SDS011;75523;53.218;6.564;2024-01-15T08:45:10;31.03;;;28.57;;
85154;SDS011;75523;53.218;6.564;2024-01-15T08:47:36;31.90;;;29.50;;
85154;SDS011;75523;53.218;6.564;2024-01-15T08:50:01;32.60;;;30.10;;
85154;SDS011;75523;53.218;6.564;2024-01-15T08:52:28;30.07;;;27.77;;
85154;SDS011;75523;53.218;6.564;2024-01-15T08:54:54;32.13;;;29.63;;
85154;SDS011;75523;53.218;6.564;2024-01-15T08:57:20;31.30;;;28.80;;
85154;SDS011;75523;53.218;6.564;2024-01-15T08:59:47;31.97;;;29.40;;
85154;SDS011;75523;53.218;6.564;2024-01-15T09:02:13;30.73;;;28.10;;
85154;SDS011;75523;53.218;6.564;2024-01-15T09:04:39;30.37;;;28.00;;
85154;SDS011;75523;53.218;6.564;2024-01-15T09:07:04;31.50;;;29.10;;
85154;SDS011;75523;53.218;6.564;2024-01-15T09:09:30;31.70;;;29.20;;
85154;SDS011;75523;53.218;6.564;2024-01-15T09:11:56;30.23;;;28.00;;
85154;SDS011;75523;53.218;6.564;2024-01-15T09:14:22;31.37;;;28.90;;
85154;SDS011;75523;53.218;6.564;2024-01-15T09:16:49;31.07;;;28.53;;
85154;SDS011;75523;53.218;6.564;2024-01-15T09:19:15;32.07;;;29.60;;
85154;SDS011;75523;53.218;6.564;2024-01-15T09:21:40;32.93;;;30.33;;
85154;SDS011;75523;53.218;6.564;2024-01-15T09:24:06;30.63;;;28.20;;
85154;SDS011;75523;53.218;6.564;2024-01-15T09:26:31;32.13;;;29.63;;
85154;SDS011;75523;53.218;6.564;2024-01-15T09:28:57;32.00;;;29.27;;
85154;SDS011;75523;53.218;6.564;2024-01-15T09:31:22;32.33;;;29.80;;
85154;SDS011;75523;53.218;6.564;2024-01-15T09:33:49;33.30;;;30.63;;
85154;SDS011;75523;53.218;6.564;2024-01-15T09:36:18;32.60;;;30.20;;
85154;SDS011;75523;53.218;6.564;2024-01-15T09:38:43;32.33;;;29.57;;
85154;SDS011;75523;53.218;6.564;2024-01-15T09:41:09;33.17;;;30.67;;
85154;SDS011;75523;53.218;6.564;2024-01-15T09:43:35;33.90;;;30.90;;
85154;SDS011;75523;53.218;6.564;2024-01-15T09:46:02;31.17;;;28.80;;
85154;SDS011;75523;53.218;6.564;2024-01-15T09:48:28;31.80;;;29.33;;
85154;SDS011;75523;53.218;6.564;2024-01-15T09:50:54;31.57;;;28.97;;
85154;SDS011;75523;53.218;6.564;2024-01-15T09:53:21;31.80;;;29.10;;
85154;SDS011;75523;53.218;6.564;2024-01-15T09:55:46;30.67;;;28.27;;
85154;SDS011;75523;53.218;6.564;2024-01-15T09:58:12;32.07;;;29.10;;
85154;SDS011;75523;53.218;6.564;2024-01-15T10:00:38;31.93;;;29.43;;
85154;SDS011;75523;53.218;6.564;2024-01-15T10:03:06;31.85;;;29.05;;
85154;SDS011;75523;53.218;6.564;2024-01-15T10:05:32;32.60;;;29.87;;
85154;SDS011;75523;53.218;6.564;2024-01-15T10:07:58;32.03;;;29.03;;
85154;SDS011;75523;53.218;6.564;2024-01-15T10:10:25;30.27;;;27.87;;
85154;SDS011;75523;53.218;6.564;2024-01-15T10:12:51;29.93;;;27.37;;
85154;SDS011;75523;53.218;6.564;2024-01-15T10:15:16;31.50;;;28.87;;
85154;SDS011;75523;53.218;6.564;2024-01-15T10:17:42;31.07;;;28.50;;
85154;SDS011;75523;53.218;6.564;2024-01-15T10:20:09;30.27;;;27.73;;
85154;SDS011;75523;53.218;6.564;2024-01-15T10:22:35;31.47;;;28.93;;
85154;SDS011;75523;53.218;6.564;2024-01-15T10:25:04;29.65;;;27.15;;
85154;SDS011;75523;53.218;6.564;2024-01-15T10:27:30;30.30;;;27.70;;
85154;SDS011;75523;53.218;6.564;2024-01-15T10:29:59;31.57;;;28.87;;
85154;SDS011;75523;53.218;6.564;2024-01-15T10:32:25;31.90;;;29.07;;
85154;SDS011;75523;53.218;6.564;2024-01-15T10:34:52;31.10;;;28.73;;
85154;SDS011;75523;53.218;6.564;2024-01-15T10:37:17;31.20;;;28.53;;
85154;SDS011;75523;53.218;6.564;2024-01-15T10:39:43;30.07;;;27.50;;
85154;SDS011;75523;53.218;6.564;2024-01-15T10:42:09;32.17;;;29.17;;
85154;SDS011;75523;53.218;6.564;2024-01-15T10:44:35;30.53;;;28.07;;
85154;SDS011;75523;53.218;6.564;2024-01-15T10:47:00;31.87;;;29.27;;
85154;SDS011;75523;53.218;6.564;2024-01-15T10:49:26;31.30;;;28.73;;
85154;SDS011;75523;53.218;6.564;2024-01-15T10:51:54;30.43;;;27.93;;
85154;SDS011;75523;53.218;6.564;2024-01-15T10:54:20;28.70;;;26.50;;
85154;SDS011;75523;53.218;6.564;2024-01-15T10:56:46;28.83;;;26.73;;
85154;SDS011;75523;53.218;6.564;2024-01-15T10:59:12;28.80;;;26.70;;
85154;SDS011;75523;53.218;6.564;2024-01-15T11:01:38;30.27;;;28.30;;
85154;SDS011;75523;53.218;6.564;2024-01-15T11:04:04;34.43;;;31.93;;
85154;SDS011;75523;53.218;6.564;2024-01-15T11:06:41;30.33;;;28.07;;
85154;SDS011;75523;53.218;6.564;2024-01-15T11:09:11;30.20;;;28.00;;
85154;SDS011;75523;53.218;6.564;2024-01-15T11:11:45;30.23;;;28.07;;
85154;SDS011;75523;53.218;6.564;2024-01-15T11:17:00;29.13;;;27.00;;
85154;SDS011;75523;53.218;6.564;2024-01-15T11:19:26;30.10;;;27.90;;
85154;SDS011;75523;53.218;6.564;2024-01-15T11:25:23;30.30;;;28.30;;
85154;SDS011;75523;53.218;6.564;2024-01-15T11:27:50;29.30;;;27.30;;
85154;SDS011;75523;53.218;6.564;2024-01-15T11:30:18;30.53;;;27.97;;
85154;SDS011;75523;53.218;6.564;2024-01-15T11:32:47;30.97;;;28.97;;
85154;SDS011;75523;53.218;6.564;2024-01-15T11:35:13;30.90;;;28.50;;
85154;SDS011;75523;53.218;6.564;2024-01-15T11:40:36;29.57;;;27.67;;
85154;SDS011;75523;53.218;6.564;2024-01-15T11:43:03;30.67;;;28.60;;
85154;SDS011;75523;53.218;6.564;2024-01-15T11:45:32;29.42;;;27.30;;
85154;SDS011;75523;53.218;6.564;2024-01-15T11:50:44;29.70;;;27.60;;
85154;SDS011;75523;53.218;6.564;2024-01-15T11:53:16;27.60;;;25.90;;
85154;SDS011;75523;53.218;6.564;2024-01-15T11:55:44;29.67;;;27.57;;
85154;SDS011;75523;53.218;6.564;2024-01-15T11:58:11;28.40;;;26.50;;
85154;SDS011;75523;53.218;6.564;2024-01-15T12:00:41;29.87;;;27.90;;
85154;SDS011;75523;53.218;6.564;2024-01-15T12:03:10;29.77;;;27.77;;
85154;SDS011;75523;53.218;6.564;2024-01-15T12:05:40;29.73;;;27.63;;
85154;SDS011;75523;53.218;6.564;2024-01-15T12:08:07;30.27;;;27.97;;
85154;SDS011;75523;53.218;6.564;2024-01-15T12:13:23;31.07;;;28.67;;
85154;SDS011;75523;53.218;6.564;2024-01-15T12:15:49;30.90;;;28.40;;
85154;SDS011;75523;53.218;6.564;2024-01-15T12:18:16;31.67;;;29.07;;
85154;SDS011;75523;53.218;6.564;2024-01-15T12:20:43;30.67;;;28.35;;
85154;SDS011;75523;53.218;6.564;2024-01-15T12:23:12;30.45;;;28.02;;
85154;SDS011;75523;53.218;6.564;2024-01-15T12:25:38;31.83;;;29.10;;
85154;SDS011;75523;53.218;6.564;2024-01-15T12:28:06;32.03;;;29.38;;
85154;SDS011;75523;53.218;6.564;2024-01-15T12:30:33;31.93;;;28.87;;
85154;SDS011;75523;53.218;6.564;2024-01-15T12:33:06;31.47;;;28.83;;
85154;SDS011;75523;53.218;6.564;2024-01-15T12:35:35;31.60;;;29.10;;
85154;SDS011;75523;53.218;6.564;2024-01-15T12:38:01;32.13;;;29.73;;
85154;SDS011;75523;53.218;6.564;2024-01-15T12:40:28;30.47;;;28.00;;
85154;SDS011;75523;53.218;6.564;2024-01-15T12:42:54;30.10;;;27.70;;
85154;SDS011;75523;53.218;6.564;2024-01-15T12:45:20;30.97;;;28.57;;
85154;SDS011;75523;53.218;6.564;2024-01-15T12:47:46;30.77;;;28.27;;
85154;SDS011;75523;53.218;6.564;2024-01-15T12:50:12;30.70;;;28.27;;
85154;SDS011;75523;53.218;6.564;2024-01-15T12:52:39;29.07;;;26.73;;
85154;SDS011;75523;53.218;6.564;2024-01-15T12:55:06;30.10;;;27.80;;
85154;SDS011;75523;53.218;6.564;2024-01-15T12:57:35;28.67;;;26.27;;
85154;SDS011;75523;53.218;6.564;2024-01-15T13:00:02;28.43;;;26.33;;
85154;SDS011;75523;53.218;6.564;2024-01-15T13:02:31;31.40;;;28.70;;
85154;SDS011;75523;53.218;6.564;2024-01-15T13:04:58;30.83;;;28.13;;
85154;SDS011;75523;53.218;6.564;2024-01-15T13:07:24;30.63;;;27.70;;
85154;SDS011;75523;53.218;6.564;2024-01-15T13:09:50;29.23;;;26.70;;
85154;SDS011;75523;53.218;6.564;2024-01-15T13:12:19;31.10;;;28.38;;
85154;SDS011;75523;53.218;6.564;2024-01-15T13:14:45;29.17;;;26.53;;
85154;SDS011;75523;53.218;6.564;2024-01-15T13:17:10;30.70;;;27.93;;
85154;SDS011;75523;53.218;6.564;2024-01-15T13:19:36;28.93;;;26.50;;
85154;SDS011;75523;53.218;6.564;2024-01-15T13:22:02;31.47;;;28.47;;
85154;SDS011;75523;53.218;6.564;2024-01-15T13:24:32;30.43;;;27.73;;
85154;SDS011;75523;53.218;6.564;2024-01-15T13:26:58;32.93;;;29.90;;
85154;SDS011;75523;53.218;6.564;2024-01-15T13:29:23;30.77;;;28.17;;
85154;SDS011;75523;53.218;6.564;2024-01-15T13:31:49;31.00;;;28.30;;
85154;SDS011;75523;53.218;6.564;2024-01-15T13:34:14;30.03;;;27.53;;
85154;SDS011;75523;53.218;6.564;2024-01-15T13:36:40;30.10;;;27.30;;
85154;SDS011;75523;53.218;6.564;2024-01-15T13:39:06;29.83;;;27.20;;
85154;SDS011;75523;53.218;6.564;2024-01-15T13:41:36;28.88;;;26.55;;
85154;SDS011;75523;53.218;6.564;2024-01-15T13:44:03;30.02;;;27.73;;
85154;SDS011;75523;53.218;6.564;2024-01-15T13:46:29;28.80;;;26.50;;
85154;SDS011;75523;53.218;6.564;2024-01-15T13:48:55;27.90;;;25.77;;
85154;SDS011;75523;53.218;6.564;2024-01-15T13:51:24;29.63;;;27.43;;
85154;SDS011;75523;53.218;6.564;2024-01-15T13:53:50;30.63;;;28.07;;
85154;SDS011;75523;53.218;6.564;2024-01-15T13:56:16;29.83;;;27.50;;
85154;SDS011;75523;53.218;6.564;2024-01-15T13:58:42;29.90;;;27.47;;
85154;SDS011;75523;53.218;6.564;2024-01-15T14:01:08;32.23;;;29.70;;
85154;SDS011;75523;53.218;6.564;2024-01-15T14:03:33;31.13;;;28.37;;
85154;SDS011;75523;53.218;6.564;2024-01-15T14:06:00;31.70;;;29.07;;
85154;SDS011;75523;53.218;6.564;2024-01-15T14:08:25;30.37;;;27.97;;
85154;SDS011;75523;53.218;6.564;2024-01-15T14:10:51;31.93;;;29.23;;
85154;SDS011;75523;53.218;6.564;2024-01-15T14:13:17;31.80;;;29.00;;
85154;SDS011;75523;53.218;6.564;2024-01-15T14:15:42;32.40;;;29.50;;
85154;SDS011;75523;53.218;6.564;2024-01-15T14:18:08;30.67;;;28.17;;
85154;SDS011;75523;53.218;6.564;2024-01-15T14:20:33;30.37;;;27.97;;
85154;SDS011;75523;53.218;6.564;2024-01-15T14:22:58;30.77;;;28.30;;
85154;SDS011;75523;53.218;6.564;2024-01-15T14:25:25;31.40;;;28.80;;
85154;SDS011;75523;53.218;6.564;2024-01-15T14:27:50;32.83;;;30.03;;
85154;SDS011;75523;53.218;6.564;2024-01-15T14:30:17;30.23;;;27.73;;